createdAt,value
2023-04-01T00:00:03.109Z,99119.09
2023-04-01T00:02:30.054Z,99121.12
2023-04-01T00:04:57.360Z,99122.47
2023-04-01T00:07:24.259Z,99125.75
2023-04-01T00:09:51.931Z,99115.03
2023-04-01T00:12:18.806Z,99118.44
2023-04-01T00:14:46.109Z,99125.06
2023-04-01T00:17:13.136Z,99119.09
2023-04-01T00:19:40.407Z,99121.38
2023-04-01T00:22:07.419Z,99116.31
2023-04-01T00:24:34.429Z,99114.53
2023-04-01T00:27:01.376Z,99122.81
2023-04-01T00:29:30.450Z,99120.47
2023-04-01T00:31:59.896Z,99123.13
2023-04-01T00:34:27.412Z,99116.78
2023-04-01T00:36:55.261Z,99111.63
2023-04-01T00:39:22.806Z,99115.47
2023-04-01T00:41:50.456Z,99114.97
2023-04-01T00:44:28.483Z,99111.38
2023-04-01T00:46:55.785Z,99116.25
2023-04-01T00:49:30.995Z,99116.25
2023-04-01T00:52:01.316Z,99113.81
2023-04-01T00:54:31.172Z,99111.72
2023-04-01T00:57:03.540Z,99111.50
2023-04-01T00:59:38.397Z,99125.91
2023-04-01T01:02:08.448Z,99134.28
2023-04-01T01:04:36.940Z,99129.53
2023-04-01T01:07:06.881Z,99139.31
2023-04-01T01:09:55.642Z,99134.53
2023-04-01T01:12:27.112Z,99131.19
2023-04-01T01:14:53.948Z,99123.44
2023-04-01T01:17:28.295Z,99117.25
2023-04-01T01:20:07.717Z,99126.09
2023-04-01T01:23:06.539Z,99116.03
2023-04-01T01:25:49.452Z,99111.03
2023-04-01T01:28:37.757Z,99103.78
2023-04-01T01:31:38.131Z,99100.97
2023-04-01T01:34:14.183Z,99097.06
2023-04-01T01:36:46.295Z,99090.16
2023-04-01T01:39:15.107Z,99097.91
2023-04-01T01:41:46.262Z,99085.91
2023-04-01T01:44:16.517Z,99089.25
2023-04-01T01:46:46.003Z,99078.72
2023-04-01T01:49:14.913Z,99070.41
2023-04-01T01:51:44.285Z,99072.06
2023-04-01T01:54:15.744Z,99073.41
2023-04-01T01:56:46.380Z,99070.69
2023-04-01T01:59:15.791Z,99068.06
2023-04-01T02:01:47.878Z,99058.28
2023-04-01T02:04:16.828Z,99057.25
2023-04-01T02:06:53.673Z,99052.50
2023-04-01T02:09:21.644Z,99043.63
2023-04-01T02:12:05.217Z,99039.72
2023-04-01T02:14:51.208Z,99034.19
2023-04-01T02:17:21.724Z,99052.66
2023-04-01T02:19:57.142Z,99050.16
2023-04-01T02:22:33.420Z,99053.97
2023-04-01T02:25:05.928Z,99048.00
2023-04-01T02:27:33.270Z,99039.47
2023-04-01T02:30:00.481Z,99037.88
2023-04-01T02:32:30.899Z,99041.88
2023-04-01T02:34:58.321Z,99048.16
2023-04-01T02:37:25.299Z,99040.75
2023-04-01T02:39:52.243Z,99044.50
2023-04-01T02:42:19.206Z,99041.84
2023-04-01T02:44:46.290Z,99040.25
2023-04-01T02:47:13.280Z,99032.97
2023-04-01T02:49:40.241Z,99025.72
2023-04-01T02:52:07.172Z,99030.50
2023-04-01T02:54:34.064Z,99032.78
2023-04-01T02:57:01.004Z,99028.19
2023-04-01T02:59:27.908Z,99024.25
2023-04-01T03:01:54.897Z,99023.75
2023-04-01T03:04:21.954Z,99023.00
2023-04-01T03:06:48.773Z,99015.72
2023-04-01T03:09:15.733Z,99022.84
2023-04-01T03:11:42.804Z,99023.16
2023-04-01T03:14:09.755Z,99025.16
2023-04-01T03:16:36.699Z,99027.53
2023-04-01T03:19:03.645Z,99022.38
2023-04-01T03:21:30.770Z,99032.16
2023-04-01T03:23:57.872Z,99022.84
2023-04-01T03:26:24.728Z,99031.72
2023-04-01T03:28:51.652Z,99037.84
2023-04-01T03:31:18.742Z,99041.75
2023-04-01T03:33:46.267Z,99042.59
2023-04-01T03:36:14.006Z,99043.88
2023-04-01T03:38:45.215Z,99054.69
2023-04-01T03:41:16.937Z,99047.00
2023-04-01T03:43:43.935Z,99035.91
2023-04-01T03:46:11.077Z,99043.22
2023-04-01T03:48:38.141Z,99042.63
2023-04-01T03:51:09.118Z,99044.78
2023-04-01T03:53:36.100Z,99042.16
2023-04-01T03:56:07.447Z,99048.50
2023-04-01T03:58:34.616Z,99046.69
2023-04-01T04:01:01.641Z,99047.06
2023-04-01T04:03:29.471Z,99055.28
2023-04-01T04:05:57.559Z,99051.50
2023-04-01T04:08:24.516Z,99056.78
2023-04-01T04:10:57.070Z,99052.53
2023-04-01T04:13:23.959Z,99055.59
2023-04-01T04:15:51.039Z,99047.72
2023-04-01T04:18:17.960Z,99043.81
2023-04-01T04:20:48.377Z,99041.72
2023-04-01T04:23:15.596Z,99053.63
2023-04-01T04:25:42.691Z,99053.34
2023-04-01T04:28:09.640Z,99066.59
2023-04-01T04:30:36.612Z,99069.06
2023-04-01T04:33:03.544Z,99069.50
2023-04-01T04:35:30.950Z,99069.75
2023-04-01T04:37:58.133Z,99078.50
2023-04-01T04:40:25.129Z,99076.34
2023-04-01T04:42:52.053Z,99077.28
2023-04-01T04:45:19.004Z,99071.59
2023-04-01T04:47:46.000Z,99078.53
2023-04-01T04:50:12.991Z,99083.84
2023-04-01T04:52:39.904Z,99089.41
2023-04-01T04:55:07.255Z,99081.03
2023-04-01T04:57:34.198Z,99077.88
2023-04-01T05:00:01.217Z,99069.25
2023-04-01T05:02:28.298Z,99073.88
2023-04-01T05:04:55.863Z,99081.34
2023-04-01T05:07:22.741Z,99073.44
2023-04-01T05:09:49.718Z,99079.16
2023-04-01T05:12:16.813Z,99085.06
2023-04-01T05:14:43.791Z,99090.22
2023-04-01T05:17:13.543Z,99092.19
2023-04-01T05:19:40.782Z,99097.06
2023-04-01T05:22:07.890Z,99094.72
2023-04-01T05:24:34.985Z,99097.38
2023-04-01T05:27:02.259Z,99083.84
2023-04-01T05:29:29.190Z,99079.59
2023-04-01T05:31:56.119Z,99088.91
2023-04-01T05:34:23.071Z,99092.59
2023-04-01T05:36:50.030Z,99094.00
2023-04-01T05:39:16.995Z,99093.25
2023-04-01T05:41:43.961Z,99099.91
2023-04-01T05:44:13.819Z,99095.22
2023-04-01T05:46:40.669Z,99101.16
2023-04-01T05:49:07.891Z,99105.50
2023-04-01T05:51:34.838Z,99100.84
2023-04-01T05:54:01.786Z,99102.28
2023-04-01T05:56:28.625Z,99097.03
2023-04-01T05:58:55.752Z,99098.03
2023-04-01T06:01:22.931Z,99095.94
2023-04-01T06:03:50.037Z,99092.94
2023-04-01T06:06:29.744Z,99102.75
2023-04-01T06:08:59.960Z,99099.44
2023-04-01T06:12:08.185Z,99084.09
2023-04-01T06:14:57.161Z,99088.47
2023-04-01T06:17:49.259Z,99093.06
2023-04-01T06:20:36.519Z,99093.91
2023-04-01T06:23:15.960Z,99102.81
2023-04-01T06:26:10.660Z,99105.25
2023-04-01T06:28:56.232Z,99096.34
2023-04-01T06:32:00.084Z,99105.81
2023-04-01T06:34:36.015Z,99104.63
2023-04-01T06:37:40.478Z,99104.00
2023-04-01T06:40:26.016Z,99105.91
2023-04-01T06:43:04.402Z,99123.16
2023-04-01T06:45:37.380Z,99119.72
2023-04-01T06:48:07.359Z,99128.72
2023-04-01T06:50:53.864Z,99124.97
2023-04-01T06:53:47.079Z,99129.63
2023-04-01T06:56:22.016Z,99125.34
2023-04-01T06:59:03.548Z,99124.75
2023-04-01T07:01:37.029Z,99131.56
2023-04-01T07:04:12.635Z,99130.00
2023-04-01T07:07:01.622Z,99135.16
2023-04-01T07:09:56.834Z,99133.47
2023-04-01T07:12:33.506Z,99136.16
2023-04-01T07:15:05.141Z,99136.91
2023-04-01T07:17:36.764Z,99138.19
2023-04-01T07:20:22.220Z,99140.34
2023-04-01T07:22:52.742Z,99135.16
2023-04-01T07:25:19.670Z,99148.06
2023-04-01T07:27:47.634Z,99155.72
2023-04-01T07:30:19.384Z,99151.44
2023-04-01T07:33:00.764Z,99145.88
2023-04-01T07:35:32.341Z,99141.25
2023-04-01T07:38:19.348Z,99143.41
2023-04-01T07:40:57.320Z,99148.97
2023-04-01T07:43:44.753Z,99149.34
2023-04-01T07:46:31.899Z,99149.38
2023-04-01T07:49:01.715Z,99158.75
2023-04-01T07:51:43.726Z,99161.47
2023-04-01T07:54:25.803Z,99164.78
2023-04-01T07:56:52.705Z,99163.59
2023-04-01T07:59:44.199Z,99160.72
2023-04-01T08:02:40.925Z,99164.66
2023-04-01T08:05:07.839Z,99156.66
2023-04-01T08:07:51.660Z,99156.38
2023-04-01T08:10:53.663Z,99156.59
2023-04-01T08:13:50.501Z,99160.22
2023-04-01T08:16:26.443Z,99152.72
2023-04-01T08:19:11.502Z,99158.00
2023-04-01T08:21:52.382Z,99157.53
2023-04-01T08:24:44.450Z,99154.87
2023-04-01T08:27:24.888Z,99151.12
2023-04-01T08:30:02.171Z,99156.22
2023-04-01T08:32:38.424Z,99147.13
2023-04-01T08:35:19.425Z,99150.22
2023-04-01T08:37:47.017Z,99159.22
2023-04-01T08:40:32.379Z,99153.88
2023-04-01T08:42:59.375Z,99147.53
2023-04-01T08:45:32.566Z,99142.81
2023-04-01T08:48:26.124Z,99139.16
2023-04-01T08:50:52.981Z,99136.59
2023-04-01T08:53:31.735Z,99134.75
2023-04-01T08:56:19.451Z,99147.03
2023-04-01T08:59:24.603Z,99136.72
2023-04-01T09:02:16.998Z,99141.66
2023-04-01T09:05:17.681Z,99135.38
2023-04-01T09:07:52.943Z,99138.28
2023-04-01T09:10:28.889Z,99141.34
2023-04-01T09:13:42.868Z,99138.50
2023-04-01T09:16:18.244Z,99139.94
2023-04-01T09:19:18.318Z,99140.16
2023-04-01T09:22:07.177Z,99141.91
2023-04-01T09:25:11.764Z,99138.59
2023-04-01T09:27:58.979Z,99147.25
2023-04-01T09:30:43.948Z,99138.97
2023-04-01T09:33:40.002Z,99144.22
2023-04-01T09:36:18.729Z,99140.16
2023-04-01T09:39:24.036Z,99142.69
2023-04-01T09:42:04.510Z,99136.34
2023-04-01T09:44:52.114Z,99138.63
2023-04-01T09:47:47.115Z,99140.50
2023-04-01T09:50:34.297Z,99137.59
2023-04-01T09:53:28.909Z,99145.16
2023-04-01T09:56:14.134Z,99141.06
2023-04-01T09:58:55.975Z,99138.09
2023-04-01T10:01:58.913Z,99141.69
2023-04-01T10:04:25.745Z,99143.06
2023-04-01T10:07:40.642Z,99138.59
2023-04-01T10:10:48.058Z,99132.84
2023-04-01T10:13:18.025Z,99136.34
2023-04-01T10:16:15.610Z,99136.25
2023-04-01T10:19:12.965Z,99127.09
2023-04-01T10:22:03.544Z,99125.06
2023-04-01T10:25:07.187Z,99122.38
2023-04-01T10:28:11.842Z,99126.84
2023-04-01T10:31:23.644Z,99126.19
2023-04-01T10:34:21.184Z,99120.94
2023-04-01T10:36:55.235Z,99120.47
2023-04-01T10:39:40.620Z,99118.16
2023-04-01T10:42:24.777Z,99119.94
2023-04-01T10:45:26.153Z,99117.44
2023-04-01T10:48:18.680Z,99113.31
2023-04-01T10:51:12.324Z,99117.34
2023-04-01T10:53:59.677Z,99120.44
2023-04-01T10:56:41.557Z,99117.16
2023-04-01T10:59:14.490Z,99114.38
2023-04-01T11:02:11.228Z,99119.63
2023-04-01T11:05:08.906Z,99117.50
2023-04-01T11:08:06.433Z,99124.94
2023-04-01T11:11:19.779Z,99117.56
2023-04-01T11:14:08.801Z,99113.41
2023-04-01T11:16:57.212Z,99113.94
2023-04-01T11:19:51.781Z,99115.63
2023-04-01T11:22:53.073Z,99113.09
2023-04-01T11:25:37.409Z,99110.09
2023-04-01T11:28:24.783Z,99105.84
2023-04-01T11:31:20.645Z,99110.50
2023-04-01T11:33:59.094Z,99106.34
2023-04-01T11:36:37.974Z,99101.28
2023-04-01T11:39:22.958Z,99105.16
2023-04-01T11:42:21.056Z,99105.66
2023-04-01T11:45:02.123Z,99111.34
2023-04-01T11:48:13.481Z,99108.16
2023-04-01T11:51:09.161Z,99105.09
2023-04-01T11:53:36.028Z,99110.63
2023-04-01T11:56:09.187Z,99107.19
2023-04-01T11:58:36.128Z,99114.59
2023-04-01T12:01:34.490Z,99111.88
2023-04-01T12:04:23.337Z,99105.38
2023-04-01T12:06:56.490Z,99110.47
2023-04-01T12:09:26.349Z,99115.66
2023-04-01T12:12:12.254Z,99117.94
2023-04-01T12:15:24.512Z,99109.87
2023-04-01T12:17:57.453Z,99109.47
2023-04-01T12:20:39.597Z,99103.38
2023-04-01T12:23:20.778Z,99100.31
2023-04-01T12:25:59.633Z,99101.63
2023-04-01T12:29:08.583Z,99104.06
2023-04-01T12:31:52.736Z,99092.00
2023-04-01T12:34:32.256Z,99100.75
2023-04-01T12:37:19.239Z,99097.16
2023-04-01T12:39:53.140Z,99097.66
2023-04-01T12:42:53.693Z,99091.47
2023-04-01T12:45:31.795Z,99100.88
2023-04-01T12:48:40.293Z,99093.66
2023-04-01T12:51:28.141Z,99085.03
2023-04-01T12:54:13.228Z,99089.34
2023-04-01T12:56:40.084Z,99092.00
2023-04-01T12:59:31.991Z,99090.44
2023-04-01T13:02:29.719Z,99094.69
2023-04-01T13:05:23.180Z,99084.94
2023-04-01T13:08:03.574Z,99096.25
2023-04-01T13:10:33.771Z,99083.16
2023-04-01T13:13:41.101Z,99088.94
2023-04-01T13:16:23.233Z,99090.56
2023-04-01T13:19:14.626Z,99094.00
2023-04-01T13:22:09.092Z,99103.31
2023-04-01T13:24:42.596Z,99119.78
2023-04-01T13:27:47.363Z,99122.91
2023-04-01T13:30:46.275Z,99119.66
2023-04-01T13:33:39.688Z,99126.69
2023-04-01T13:36:19.527Z,99119.19
2023-04-01T13:38:56.641Z,99123.47
2023-04-01T13:41:39.472Z,99126.19
2023-04-01T13:44:24.357Z,99119.44
2023-04-01T13:47:09.399Z,99124.34
2023-04-01T13:50:11.421Z,99128.19
2023-04-01T13:52:47.272Z,99128.03
2023-04-01T13:55:33.127Z,99123.47
2023-04-01T13:58:15.294Z,99123.69
2023-04-01T14:01:06.894Z,99131.34
2023-04-01T14:04:06.128Z,99130.03
2023-04-01T14:06:50.697Z,99133.13
2023-04-01T14:09:53.062Z,99133.78
2023-04-01T14:12:30.148Z,99140.31
2023-04-01T14:15:24.838Z,99143.88
2023-04-01T14:17:54.641Z,99144.00
2023-04-01T14:20:24.537Z,99136.03
2023-04-01T14:23:16.398Z,99111.44
2023-04-01T14:25:43.325Z,99111.69
2023-04-01T14:28:16.247Z,99097.56
2023-04-01T14:31:01.783Z,99088.69
2023-04-01T14:33:48.318Z,99078.22
2023-04-01T14:36:43.181Z,99076.63
2023-04-01T14:39:31.550Z,99069.28
2023-04-01T14:42:22.408Z,99074.94
2023-04-01T14:44:56.707Z,99076.34
2023-04-01T14:48:01.913Z,99085.69
2023-04-01T14:50:41.424Z,99080.53
2023-04-01T14:53:08.395Z,99073.38
2023-04-01T14:55:44.504Z,99071.16
2023-04-01T14:58:15.741Z,99072.81
2023-04-01T15:00:53.577Z,99067.91
2023-04-01T15:03:28.320Z,99063.75
2023-04-01T15:06:13.454Z,99064.37
2023-04-01T15:08:59.132Z,99068.16
2023-04-01T15:11:35.009Z,99066.69
2023-04-01T15:14:30.607Z,99062.41
2023-04-01T15:17:08.522Z,99062.66
2023-04-01T15:19:57.393Z,99056.47
2023-04-01T15:22:32.085Z,99062.06
2023-04-01T15:25:27.235Z,99060.97
2023-04-01T15:27:57.130Z,99062.94
2023-04-01T15:30:37.036Z,99065.34
2023-04-01T15:33:13.225Z,99065.03
2023-04-01T15:36:07.792Z,99065.94
2023-04-01T15:38:39.952Z,99079.63
2023-04-01T15:41:27.173Z,99084.66
2023-04-01T15:43:54.135Z,99092.91
2023-04-01T15:46:33.010Z,99087.97
2023-04-01T15:49:32.808Z,99092.25
2023-04-01T15:52:26.304Z,99094.69
2023-04-01T15:55:13.559Z,99095.88
2023-04-01T15:57:47.241Z,99095.13
2023-04-01T16:00:58.417Z,99099.91
2023-04-01T16:03:34.450Z,99099.78
2023-04-01T16:06:01.382Z,99102.94
2023-04-01T16:08:47.449Z,99098.53
2023-04-01T16:11:53.119Z,99106.94
2023-04-01T16:14:40.239Z,99106.44
2023-04-01T16:17:28.719Z,99113.38
2023-04-01T16:20:11.315Z,99114.91
2023-04-01T16:22:51.670Z,99123.84
2023-04-01T16:25:43.083Z,99126.97
2023-04-01T16:28:35.601Z,99133.25
2023-04-01T16:31:14.462Z,99134.47
2023-04-01T16:34:09.287Z,99135.00
2023-04-01T16:36:55.598Z,99139.47
2023-04-01T16:39:58.440Z,99143.94
2023-04-01T16:42:47.811Z,99146.75
2023-04-01T16:45:30.097Z,99159.00
2023-04-01T16:48:07.422Z,99164.00
2023-04-01T16:51:00.676Z,99169.31
2023-04-01T16:53:49.613Z,99173.78
2023-04-01T16:56:31.516Z,99174.62
2023-04-01T16:59:07.887Z,99179.97
2023-04-01T17:01:44.769Z,99187.34
2023-04-01T17:04:27.144Z,99190.44
2023-04-01T17:07:03.670Z,99194.34
2023-04-01T17:10:16.536Z,99189.53
2023-04-01T17:13:02.143Z,99195.38
2023-04-01T17:15:41.185Z,99205.78
2023-04-01T17:18:26.533Z,99203.84
2023-04-01T17:21:01.289Z,99204.53
2023-04-01T17:23:45.105Z,99213.31
2023-04-01T17:26:30.856Z,99213.53
2023-04-01T17:29:16.186Z,99209.63
2023-04-01T17:32:10.942Z,99219.62
2023-04-01T17:35:02.428Z,99212.19
2023-04-01T17:37:56.322Z,99228.44
2023-04-01T17:40:30.928Z,99232.56
2023-04-01T17:43:30.259Z,99227.03
2023-04-01T17:46:02.410Z,99241.34
2023-04-01T17:48:58.711Z,99238.87
2023-04-01T17:51:57.812Z,99248.03
2023-04-01T17:54:57.135Z,99255.63
2023-04-01T17:57:46.054Z,99261.16
2023-04-01T18:00:27.131Z,99259.84
2023-04-01T18:03:31.535Z,99259.56
2023-04-01T18:06:41.104Z,99248.75
2023-04-01T18:09:36.954Z,99261.59
2023-04-01T18:12:32.916Z,99260.91
2023-04-01T18:17:45.208Z,99270.22
2023-04-01T18:20:24.276Z,99270.94
2023-04-01T18:23:09.817Z,99272.88
2023-04-01T18:25:42.138Z,99285.28
2023-04-01T18:28:39.939Z,99291.19
2023-04-01T18:31:23.213Z,99292.56
2023-04-01T18:33:50.662Z,99291.63
2023-04-01T18:36:42.619Z,99287.56
2023-04-01T18:39:17.216Z,99299.09
2023-04-01T18:42:04.417Z,99304.59
2023-04-01T18:44:47.163Z,99309.78
2023-04-01T18:47:32.448Z,99298.97
2023-04-01T18:50:21.551Z,99309.16
2023-04-01T18:52:59.983Z,99309.13
2023-04-01T18:55:30.029Z,99311.31
2023-04-01T18:58:27.574Z,99314.56
2023-04-01T19:01:40.775Z,99319.69
2023-04-01T19:04:35.079Z,99330.81
2023-04-01T19:07:23.502Z,99320.34
2023-04-01T19:09:51.969Z,99328.47
2023-04-01T19:12:35.877Z,99331.75
2023-04-01T19:15:36.964Z,99336.22
2023-04-01T19:18:27.500Z,99342.78
2023-04-01T19:20:58.641Z,99342.31
2023-04-01T19:23:44.122Z,99340.78
2023-04-01T19:26:32.654Z,99341.91
2023-04-01T19:29:28.685Z,99341.25
2023-04-01T19:32:34.223Z,99350.59
2023-04-01T19:35:18.959Z,99342.16
2023-04-01T19:38:13.685Z,99341.91
2023-04-01T19:41:07.912Z,99333.16
2023-04-01T19:44:24.601Z,99348.53
2023-04-01T19:46:56.093Z,99353.63
2023-04-01T19:49:34.323Z,99356.97
2023-04-01T19:52:05.084Z,99363.06
2023-04-01T19:54:41.349Z,99358.53
2023-04-01T19:57:18.283Z,99367.00
2023-04-01T20:00:05.213Z,99366.00
2023-04-01T20:02:38.210Z,99373.38
2023-04-01T20:05:27.085Z,99365.50
2023-04-01T20:08:01.396Z,99372.19
2023-04-01T20:10:43.906Z,99370.28
2023-04-01T20:13:23.023Z,99379.28
2023-04-01T20:16:02.852Z,99378.69
2023-04-01T20:18:39.719Z,99382.72
2023-04-01T20:21:26.196Z,99394.34
2023-04-01T20:24:03.563Z,99386.66
2023-04-01T20:26:35.575Z,99389.00
2023-04-01T20:29:20.330Z,99395.19
2023-04-01T20:32:14.790Z,99383.34
2023-04-01T20:35:13.852Z,99388.63
2023-04-01T20:37:58.335Z,99394.56
2023-04-01T20:40:32.992Z,99401.13
2023-04-01T20:43:14.811Z,99397.31
2023-04-01T20:45:47.796Z,99404.84
2023-04-01T20:48:28.499Z,99399.13
2023-04-01T20:51:00.729Z,99407.91
2023-04-01T20:53:38.477Z,99407.41
2023-04-01T20:56:17.623Z,99411.44
2023-04-01T20:59:02.836Z,99410.16
2023-04-01T21:01:48.388Z,99409.69
2023-04-01T21:04:34.207Z,99418.03
2023-04-01T21:07:38.766Z,99420.00
2023-04-01T21:10:20.032Z,99424.41
2023-04-01T21:12:56.809Z,99426.59
2023-04-01T21:16:01.645Z,99423.72
2023-04-01T21:18:46.768Z,99438.09
2023-04-01T21:22:01.416Z,99442.19
2023-04-01T21:24:50.042Z,99448.09
2023-04-01T21:27:25.934Z,99456.81
2023-04-01T21:30:11.200Z,99461.03
2023-04-01T21:32:37.990Z,99465.69
2023-04-01T21:35:31.554Z,99475.34
2023-04-01T21:38:15.339Z,99478.25
2023-04-01T21:41:00.414Z,99483.44
2023-04-01T21:43:58.327Z,99474.25
2023-04-01T21:46:47.775Z,99490.03
2023-04-01T21:49:25.908Z,99496.03
2023-04-01T21:52:29.846Z,99510.34
2023-04-01T21:55:21.341Z,99506.34
2023-04-01T21:58:11.174Z,99501.34
2023-04-01T22:00:59.463Z,99500.06
2023-04-01T22:03:32.380Z,99495.44
2023-04-01T22:06:53.507Z,99508.47
2023-04-01T22:09:42.531Z,99505.34
2023-04-01T22:12:33.202Z,99506.47
2023-04-01T22:15:21.778Z,99502.62
2023-04-01T22:18:15.168Z,99496.91
2023-04-01T22:21:06.405Z,99495.91
2023-04-01T22:23:46.591Z,99493.25
2023-04-01T22:26:44.508Z,99500.34
2023-04-01T22:29:31.126Z,99505.06
2023-04-01T22:32:20.916Z,99492.13
2023-04-01T22:34:53.718Z,99505.59
2023-04-01T22:37:33.361Z,99507.44
2023-04-01T22:40:24.643Z,99506.00
2023-04-01T22:43:02.643Z,99494.84
2023-04-01T22:45:51.036Z,99501.41
2023-04-01T22:48:39.643Z,99502.53
2023-04-01T22:51:19.199Z,99500.78
2023-04-01T22:54:07.836Z,99503.81
2023-04-01T22:56:41.573Z,99498.25
2023-04-01T22:59:37.790Z,99502.06
2023-04-01T23:02:26.944Z,99493.97
2023-04-01T23:04:59.355Z,99505.84
2023-04-01T23:07:47.723Z,99502.06
2023-04-01T23:10:45.853Z,99496.31
2023-04-01T23:13:22.201Z,99493.66
2023-04-01T23:15:49.405Z,99491.16
2023-04-01T23:18:37.483Z,99498.81
2023-04-01T23:21:17.623Z,99511.72
2023-04-01T23:23:51.412Z,99507.66
2023-04-01T23:26:34.184Z,99507.84
2023-04-01T23:29:01.710Z,99503.81
2023-04-01T23:31:30.244Z,99508.81
2023-04-01T23:34:07.016Z,99501.16
2023-04-01T23:36:40.566Z,99508.81
2023-04-01T23:39:25.217Z,99506.44
2023-04-01T23:41:56.215Z,99510.06
2023-04-01T23:44:26.850Z,99510.81
2023-04-01T23:46:55.575Z,99500.00
2023-04-01T23:49:26.805Z,99508.72
2023-04-01T23:51:58.204Z,99506.75
2023-04-01T23:55:16.487Z,99509.16
2023-04-01T23:57:43.480Z,99513.19
